createdAt,value
2023-04-03T00:00:17.897Z,1.80
2023-04-03T00:05:19.504Z,1.60
2023-04-03T00:10:21.220Z,2.17
2023-04-03T00:15:22.842Z,2.42
2023-04-03T00:20:24.773Z,1.83
2023-04-03T00:25:26.676Z,1.90
2023-04-03T00:30:28.328Z,1.80
2023-04-03T00:35:30.387Z,2.25
2023-04-03T00:40:36.935Z,2.05
2023-04-03T00:45:41.587Z,2.72
2023-04-03T00:50:45.472Z,1.90
2023-04-03T00:55:49.212Z,2.00
2023-04-03T01:00:58.593Z,3.03
2023-04-03T01:06:00.708Z,2.13
2023-04-03T01:11:02.652Z,2.05
2023-04-03T01:16:06.366Z,1.70
2023-04-03T01:21:30.906Z,2.33
2023-04-03T01:26:33.187Z,2.22
2023-04-03T01:32:01.066Z,1.70
2023-04-03T01:37:03.148Z,1.88
2023-04-03T01:42:05.452Z,2.47
2023-04-03T01:47:11.529Z,1.90
2023-04-03T01:52:15.334Z,2.20
2023-04-03T01:57:17.708Z,2.70
2023-04-03T02:02:21.273Z,1.92
2023-04-03T02:07:23.008Z,2.40
2023-04-03T02:12:24.644Z,2.10
2023-04-03T02:17:26.343Z,2.60
2023-04-03T02:22:30.307Z,1.85
2023-04-03T02:27:32.824Z,1.90
2023-04-03T02:32:34.499Z,2.45
2023-04-03T02:37:38.331Z,1.50
2023-04-03T02:42:40.152Z,2.67
2023-04-03T02:47:42.169Z,2.03
2023-04-03T02:52:44.980Z,2.15
2023-04-03T02:57:46.710Z,2.13
2023-04-03T03:02:49.906Z,2.20
2023-04-03T03:07:51.570Z,2.63
2023-04-03T03:12:53.332Z,1.63
2023-04-03T03:17:55.099Z,2.30
2023-04-03T03:22:56.762Z,2.90
2023-04-03T03:27:58.399Z,2.50
2023-04-03T03:33:00.709Z,2.72
2023-04-03T03:38:02.374Z,2.80
2023-04-03T03:43:04.263Z,2.13
2023-04-03T03:48:06.872Z,1.88
2023-04-03T03:53:08.959Z,2.78
2023-04-03T03:58:10.803Z,2.40
2023-04-03T04:03:13.242Z,2.05
2023-04-03T04:08:16.068Z,2.42
2023-04-03T04:13:19.713Z,3.00
2023-04-03T04:18:23.570Z,2.47
2023-04-03T04:23:25.712Z,1.83
2023-04-03T04:28:28.466Z,2.63
2023-04-03T04:33:32.815Z,2.72
2023-04-03T04:38:37.374Z,2.35
2023-04-03T04:43:39.325Z,2.58
2023-04-03T04:48:41.546Z,2.05
2023-04-03T04:53:44.715Z,2.95
2023-04-03T04:58:49.095Z,2.78
2023-04-03T05:03:53.342Z,3.13
2023-04-03T05:08:55.379Z,2.83
2023-04-03T05:13:58.129Z,2.67
2023-04-03T05:19:01.422Z,2.60
2023-04-03T05:24:04.482Z,2.35
2023-04-03T05:29:09.089Z,3.00
2023-04-03T05:34:11.116Z,2.95
2023-04-03T05:39:14.479Z,2.95
2023-04-03T05:44:18.763Z,3.75
2023-04-03T05:49:22.362Z,3.38
2023-04-03T05:54:29.373Z,2.85
2023-04-03T05:59:38.866Z,2.80
2023-04-03T06:04:40.724Z,2.78
2023-04-03T06:09:43.572Z,3.38
2023-04-03T06:14:45.857Z,3.97
2023-04-03T06:19:49.287Z,2.97
2023-04-03T06:24:51.350Z,2.75
2023-04-03T06:29:52.976Z,2.70
2023-04-03T06:34:54.673Z,2.72
2023-04-03T06:39:56.408Z,3.40
2023-04-03T06:44:58.054Z,2.67
2023-04-03T06:49:59.726Z,2.65
2023-04-03T06:55:01.478Z,2.60
2023-04-03T07:00:05.345Z,3.47
2023-04-03T07:05:07.672Z,2.70
2023-04-03T07:10:09.710Z,3.10
2023-04-03T07:15:13.337Z,3.38
2023-04-03T07:20:16.187Z,2.83
2023-04-03T07:25:18.165Z,3.33
2023-04-03T07:30:19.844Z,5.07
2023-04-03T07:35:21.474Z,3.85
2023-04-03T07:40:23.278Z,3.00
2023-04-03T07:45:25.719Z,3.65
2023-04-03T07:50:28.285Z,2.38
2023-04-03T07:55:29.895Z,2.63
2023-04-03T08:00:31.543Z,3.10
2023-04-03T08:05:38.090Z,3.85
2023-04-03T08:10:40.966Z,3.22
2023-04-03T08:15:42.648Z,3.15
2023-04-03T08:20:44.718Z,2.75
2023-04-03T08:25:46.424Z,2.80
2023-04-03T08:30:48.029Z,2.35
2023-04-03T08:35:50.590Z,2.55
2023-04-03T08:41:14.792Z,3.58
2023-04-03T08:46:21.343Z,2.75
2023-04-03T08:51:25.085Z,3.80
2023-04-03T08:56:27.780Z,2.50
2023-04-03T09:01:41.951Z,2.47
2023-04-03T09:06:50.680Z,2.38
2023-04-03T09:11:52.222Z,2.67
2023-04-03T09:17:02.771Z,2.15
2023-04-03T09:22:13.640Z,2.58
2023-04-03T09:27:15.412Z,2.72
2023-04-03T09:32:27.424Z,2.10
2023-04-03T09:37:43.731Z,4.95
2023-04-03T09:42:48.945Z,2.00
2023-04-03T09:48:16.760Z,1.73
2023-04-03T09:53:44.268Z,2.08
2023-04-03T09:58:51.131Z,1.83
2023-04-03T10:04:11.393Z,1.98
2023-04-03T10:09:26.674Z,2.10
2023-04-03T10:14:29.869Z,2.15
2023-04-03T10:19:44.571Z,1.95
2023-04-03T10:25:03.955Z,1.45
2023-04-03T10:30:35.434Z,2.00
2023-04-03T10:36:02.588Z,1.60
2023-04-03T10:41:22.883Z,1.30
2023-04-03T10:46:33.337Z,1.50
2023-04-03T10:51:44.037Z,1.80
2023-04-03T10:57:04.659Z,1.40
2023-04-03T11:02:23.478Z,1.67
2023-04-03T11:07:32.722Z,1.55
2023-04-03T11:12:47.948Z,1.70
2023-04-03T11:17:56.651Z,2.05
2023-04-03T11:23:04.207Z,1.60
2023-04-03T11:28:13.441Z,1.60
2023-04-03T11:33:52.742Z,1.50
2023-04-03T11:38:58.384Z,1.67
2023-04-03T11:44:06.894Z,2.25
2023-04-03T11:49:47.215Z,1.33
2023-04-03T11:54:49.595Z,1.30
2023-04-03T11:59:51.245Z,1.48
2023-04-03T12:05:44.062Z,1.52
2023-04-03T12:11:11.611Z,2.10
2023-04-03T12:16:39.182Z,1.27
2023-04-03T12:21:47.353Z,2.10
2023-04-03T12:26:59.088Z,1.33
2023-04-03T12:32:18.318Z,1.02
2023-04-03T12:37:26.012Z,1.90
2023-04-03T12:42:55.352Z,2.80
2023-04-03T12:47:57.371Z,1.60
2023-04-03T12:53:06.348Z,1.58
2023-04-03T12:58:17.450Z,2.03
2023-04-03T13:03:29.856Z,2.33
2023-04-03T13:08:31.875Z,1.50
2023-04-03T13:13:33.575Z,1.30
2023-04-03T13:18:36.382Z,1.60
2023-04-03T13:23:41.541Z,1.65
2023-04-03T13:28:44.690Z,1.77
2023-04-03T13:34:04.215Z,1.90
2023-04-03T13:39:24.391Z,1.48
2023-04-03T13:44:36.865Z,1.45
2023-04-03T13:50:16.340Z,1.38
2023-04-03T13:55:26.843Z,1.88
2023-04-03T14:00:35.040Z,1.35
2023-04-03T14:05:36.948Z,1.38
2023-04-03T14:10:39.807Z,1.48
2023-04-03T14:15:41.839Z,1.35
2023-04-03T14:20:44.460Z,1.45
2023-04-03T14:25:46.052Z,1.70
2023-04-03T14:30:49.482Z,1.98
2023-04-03T14:35:51.563Z,1.70
2023-04-03T14:40:57.130Z,1.80
2023-04-03T14:46:00.800Z,1.90
2023-04-03T14:51:06.054Z,1.17
2023-04-03T14:56:30.817Z,2.00
2023-04-03T15:01:32.448Z,1.58
2023-04-03T15:06:34.993Z,1.92
2023-04-03T15:11:36.612Z,1.90
2023-04-03T15:16:38.569Z,1.85
2023-04-03T15:21:40.817Z,2.20
2023-04-03T15:26:42.709Z,1.70
2023-04-03T15:31:44.368Z,1.73
2023-04-03T15:36:46.309Z,1.65
2023-04-03T15:41:48.014Z,1.95
2023-04-03T15:46:52.419Z,1.67
2023-04-03T15:51:54.205Z,1.50
2023-04-03T15:56:56.510Z,1.70
2023-04-03T16:01:59.991Z,1.40
2023-04-03T16:07:03.523Z,1.75
2023-04-03T16:12:05.169Z,2.22
2023-04-03T16:17:06.842Z,1.42
2023-04-03T16:22:08.537Z,1.60
2023-04-03T16:27:10.297Z,1.55
2023-04-03T16:32:13.165Z,1.60
2023-04-03T16:37:15.668Z,1.50
2023-04-03T16:42:17.388Z,1.58
2023-04-03T16:47:20.736Z,1.65
2023-04-03T16:52:22.369Z,1.83
2023-04-03T16:57:25.820Z,1.48
2023-04-03T17:02:27.816Z,1.60
2023-04-03T17:07:29.516Z,1.48
2023-04-03T17:12:31.565Z,1.63
2023-04-03T17:17:33.377Z,2.45
2023-04-03T17:22:35.850Z,1.80
2023-04-03T17:27:37.608Z,1.52
2023-04-03T17:32:39.276Z,1.63
2023-04-03T17:37:41.242Z,1.60
2023-04-03T17:42:42.882Z,1.42
2023-04-03T17:47:46.649Z,1.80
2023-04-03T17:52:48.362Z,1.65
2023-04-03T17:57:50.350Z,1.75
2023-04-03T18:02:54.186Z,1.60
2023-04-03T18:07:57.603Z,1.83
2023-04-03T18:12:59.250Z,2.10
2023-04-03T18:18:01.127Z,2.10
2023-04-03T18:23:02.851Z,2.70
2023-04-03T18:28:06.678Z,2.28
2023-04-03T18:33:08.435Z,2.40
2023-04-03T18:38:10.106Z,2.42
2023-04-03T18:43:12.578Z,2.13
2023-04-03T18:48:14.623Z,2.13
2023-04-03T18:53:16.399Z,3.25
2023-04-03T18:58:18.011Z,2.78
2023-04-03T19:03:19.790Z,2.80
2023-04-03T19:08:21.580Z,2.53
2023-04-03T19:13:23.248Z,2.45
2023-04-03T19:18:26.232Z,2.67
2023-04-03T19:23:27.943Z,2.40
2023-04-03T19:28:29.999Z,2.70
2023-04-03T19:33:31.814Z,3.33
2023-04-03T19:38:33.403Z,3.28
2023-04-03T19:43:35.215Z,2.95
2023-04-03T19:48:37.156Z,3.90
2023-04-03T19:53:38.827Z,3.25
2023-04-03T19:58:41.279Z,3.70
2023-04-03T20:03:43.009Z,4.18
2023-04-03T20:08:45.174Z,3.63
2023-04-03T20:13:54.463Z,3.72
2023-04-03T20:18:57.497Z,3.75
2023-04-03T20:24:00.793Z,3.55
2023-04-03T20:29:02.767Z,2.65
2023-04-03T20:34:04.379Z,2.92
2023-04-03T20:39:06.069Z,2.67
2023-04-03T20:44:07.761Z,2.35
2023-04-03T20:49:09.374Z,2.95
2023-04-03T20:54:11.590Z,3.15
2023-04-03T20:59:14.178Z,2.58
2023-04-03T21:04:23.165Z,2.67
2023-04-03T21:10:02.209Z,3.25
2023-04-03T21:15:41.394Z,2.70
2023-04-03T21:20:45.704Z,4.05
2023-04-03T21:25:48.795Z,2.28
2023-04-03T21:30:50.609Z,2.72
2023-04-03T21:35:57.922Z,3.45
2023-04-03T21:41:00.730Z,2.78
2023-04-03T21:46:02.802Z,2.95
2023-04-03T21:51:05.259Z,2.80
2023-04-03T21:56:07.207Z,3.05
2023-04-03T22:01:16.175Z,2.92
2023-04-03T22:06:18.081Z,2.83
2023-04-03T22:11:23.007Z,2.72
2023-04-03T22:16:24.954Z,3.65
2023-04-03T22:21:27.183Z,3.38
2023-04-03T22:26:28.903Z,3.45
2023-04-03T22:31:30.615Z,3.05
2023-04-03T22:36:32.330Z,3.17
2023-04-03T22:41:33.964Z,2.85
2023-04-03T22:46:35.644Z,3.20
2023-04-03T22:51:37.274Z,3.45
2023-04-03T22:56:38.886Z,3.75
2023-04-03T23:01:40.523Z,2.90
2023-04-03T23:06:42.756Z,3.35
2023-04-03T23:11:44.372Z,2.80
2023-04-03T23:16:46.799Z,3.80
2023-04-03T23:21:48.518Z,3.28
2023-04-03T23:26:50.168Z,3.03
2023-04-03T23:31:51.773Z,2.50
2023-04-03T23:36:53.407Z,2.50
2023-04-03T23:41:55.008Z,3.20
2023-04-03T23:46:58.093Z,2.80
2023-04-03T23:51:59.757Z,2.40
2023-04-03T23:57:01.364Z,2.60
